Time;durP1;ratioP1;P1;durP2;ratioP2;P2;SDS_P1;SDS_P2;PMS_P1;PMS_P2;Temp;Humidity;BMP_temperature;BMP_pressure;BME280_temperature;BME280_humidity;BME280_pressure;Samples;Min_cycle;Max_cycle;Signal;HPM_P1;HPM_P2
2023/02/22 00:00:41;;;;;;;84.43;44.08;;;8.80;99.90;;;;;;4916986;29;20047;-75
2023/02/22 00:03:11;;;;;;;82.38;44.00;;;8.80;99.90;;;;;;4913674;29;20929;-75
2023/02/22 00:05:43;;;;;;;88.35;43.67;;;8.80;99.90;;;;;;4913813;29;20024;-75
2023/02/22 00:08:10;;;;;;;75.40;41.95;;;8.70;99.90;;;;;;4921066;29;20178;-75
2023/02/22 00:10:39;;;;;;;87.97;44.17;;;8.70;99.90;;;;;;4917425;29;20054;-75
2023/02/22 00:13:08;;;;;;;85.55;44.83;;;8.70;99.90;;;;;;4916063;29;20032;-75
2023/02/22 00:15:34;;;;;;;81.55;44.15;;;8.70;99.90;;;;;;4919527;29;20042;-75
2023/02/22 00:18:02;;;;;;;88.97;44.95;;;8.70;99.90;;;;;;4920483;29;20044;-75
2023/02/22 00:20:27;;;;;;;83.88;42.03;;;8.70;99.90;;;;;;4917141;29;20037;-75
2023/02/22 00:22:53;;;;;;;77.82;41.47;;;8.70;99.90;;;;;;4922427;29;20039;-74
2023/02/22 00:25:22;;;;;;;79.78;42.15;;;8.70;99.90;;;;;;4918743;29;20054;-75
2023/02/22 00:27:51;;;;;;;87.32;45.10;;;8.70;99.90;;;;;;4927619;29;20122;-73
2023/02/22 00:30:26;;;;;;;85.20;43.15;;;8.70;99.90;;;;;;4924325;29;20042;-73
2023/02/22 00:32:54;;;;;;;89.07;48.92;;;8.70;99.90;;;;;;4926089;29;20474;-75
2023/02/22 00:35:22;;;;;;;82.82;43.03;;;8.70;99.90;;;;;;4918428;29;20032;-75
2023/02/22 00:37:57;;;;;;;88.50;44.25;;;8.80;99.90;;;;;;4914268;29;20040;-76
2023/02/22 00:40:26;;;;;;;94.32;45.67;;;8.70;99.90;;;;;;4918052;29;20386;-75
2023/02/22 00:42:52;;;;;;;84.82;43.70;;;8.70;99.90;;;;;;4915650;29;20035;-75
2023/02/22 00:45:23;;;;;;;87.47;45.70;;;8.70;99.90;;;;;;4924570;29;20039;-75
2023/02/22 00:47:49;;;;;;;85.63;43.22;;;8.70;99.90;;;;;;4925374;29;20032;-75
2023/02/22 00:50:18;;;;;;;81.88;42.63;;;8.70;99.90;;;;;;4922023;29;20114;-75
2023/02/22 00:52:44;;;;;;;91.20;46.97;;;8.70;99.90;;;;;;4921845;29;20135;-74
2023/02/22 00:55:19;;;;;;;86.03;48.38;;;8.70;99.90;;;;;;4920414;29;20487;-75
2023/02/22 00:57:44;;;;;;;81.50;43.20;;;8.70;99.90;;;;;;4922663;29;20040;-74
2023/02/22 01:00:17;;;;;;;87.72;48.17;;;8.80;99.90;;;;;;4918666;29;20060;-75
2023/02/22 01:02:43;;;;;;;87.13;45.22;;;8.70;99.90;;;;;;4918705;29;20099;-75
2023/02/22 01:05:11;;;;;;;97.00;48.45;;;8.80;99.90;;;;;;4920392;29;20510;-75
2023/02/22 01:07:38;;;;;;;95.10;51.17;;;8.80;99.90;;;;;;4917703;29;20398;-74
2023/02/22 01:10:07;;;;;;;98.70;53.20;;;8.80;99.90;;;;;;4918580;29;20039;-75
2023/02/22 01:12:34;;;;;;;104.28;55.15;;;8.80;99.90;;;;;;4920638;29;20501;-75
2023/02/22 01:15:02;;;;;;;93.43;52.47;;;8.90;99.90;;;;;;4919594;29;20062;-75
2023/02/22 01:17:28;;;;;;;92.88;49.83;;;8.90;99.90;;;;;;4918566;29;20031;-75
2023/02/22 01:19:54;;;;;;;92.25;49.15;;;8.80;99.90;;;;;;4919879;29;20070;-74
2023/02/22 01:22:21;;;;;;;84.60;48.58;;;8.80;99.90;;;;;;4920040;29;20531;-75
2023/02/22 01:24:47;;;;;;;96.80;49.35;;;8.80;99.90;;;;;;4922882;29;20073;-74
2023/02/22 01:27:13;;;;;;;89.32;47.28;;;8.80;99.90;;;;;;4926806;29;20470;-75
2023/02/22 01:29:40;;;;;;;93.70;49.47;;;8.70;99.90;;;;;;4927724;29;20063;-75
2023/02/22 01:32:06;;;;;;;92.63;48.75;;;8.80;99.90;;;;;;4928121;29;20615;-74
2023/02/22 01:34:31;;;;;;;84.93;48.03;;;8.80;99.90;;;;;;4923828;29;20024;-75
2023/02/22 01:36:58;;;;;;;84.50;46.15;;;8.80;99.90;;;;;;4920756;29;20504;-74
2023/02/22 01:39:24;;;;;;;85.80;47.92;;;8.80;99.90;;;;;;4929825;29;20556;-74
2023/02/22 01:41:52;;;;;;;92.93;48.78;;;8.80;99.90;;;;;;4923499;29;20036;-75
2023/02/22 01:44:33;;;;;;;88.80;49.78;;;8.80;99.90;;;;;;4924937;29;20036;-75
2023/02/22 01:47:01;;;;;;;84.18;46.95;;;8.70;99.90;;;;;;4922691;29;20039;-75
2023/02/22 01:49:46;;;;;;;89.80;49.03;;;8.70;99.90;;;;;;4922030;29;20058;-75
2023/02/22 01:52:18;;;;;;;95.10;48.88;;;8.70;99.90;;;;;;4922917;29;20035;-75
2023/02/22 01:54:51;;;;;;;88.35;48.35;;;8.60;99.90;;;;;;4925911;29;20150;-76
2023/02/22 01:57:34;;;;;;;92.68;49.75;;;8.60;99.90;;;;;;4925560;29;20038;-73
2023/02/22 02:00:10;;;;;;;85.07;49.72;;;8.70;99.90;;;;;;4927290;29;20043;-75
2023/02/22 02:02:40;;;;;;;88.47;47.03;;;8.70;99.90;;;;;;4925876;29;20429;-75
2023/02/22 02:05:07;;;;;;;88.30;48.75;;;8.80;99.90;;;;;;4923535;29;20043;-75
2023/02/22 02:07:36;;;;;;;85.55;48.30;;;8.70;99.90;;;;;;4924860;29;20377;-75
2023/02/22 02:10:06;;;;;;;93.10;50.20;;;8.80;99.90;;;;;;4922040;29;20031;-75
2023/02/22 02:12:34;;;;;;;89.93;47.30;;;8.70;99.90;;;;;;4923820;29;20042;-74
2023/02/22 02:15:19;;;;;;;88.88;48.95;;;8.70;99.90;;;;;;4921950;29;20043;-75
2023/02/22 02:17:46;;;;;;;86.70;47.58;;;8.70;99.90;;;;;;4931591;29;20426;-74
2023/02/22 02:20:45;;;;;;;89.78;49.53;;;8.70;99.90;;;;;;4922276;29;20700;-74
2023/02/22 02:23:34;;;;;;;89.57;46.85;;;8.70;99.90;;;;;;4922136;29;20494;-75
2023/02/22 02:26:18;;;;;;;85.95;46.53;;;8.70;99.90;;;;;;4923334;29;20031;-75
2023/02/22 02:28:56;;;;;;;97.95;47.75;;;8.70;99.90;;;;;;4921864;29;20087;-75
2023/02/22 02:31:30;;;;;;;85.75;46.20;;;8.60;99.90;;;;;;4926850;29;20040;-74
2023/02/22 02:34:14;;;;;;;86.13;46.72;;;8.70;99.90;;;;;;4917453;29;20101;-74
2023/02/22 02:37:06;;;;;;;92.05;47.78;;;8.70;99.90;;;;;;4917916;29;20032;-74
2023/02/22 02:39:55;;;;;;;84.85;48.90;;;8.70;99.90;;;;;;4923175;29;20043;-74
2023/02/22 02:42:28;;;;;;;89.05;47.20;;;8.60;99.90;;;;;;4919912;29;20043;-75
2023/02/22 02:45:08;;;;;;;83.90;46.17;;;8.60;99.90;;;;;;4919456;29;20127;-74
2023/02/22 02:47:39;;;;;;;93.80;49.13;;;8.60;99.90;;;;;;4923270;29;20481;-75
2023/02/22 02:50:08;;;;;;;100.20;48.03;;;8.60;99.90;;;;;;4922779;29;20024;-74
2023/02/22 02:52:35;;;;;;;87.55;45.28;;;8.60;99.90;;;;;;4925438;29;20039;-75
2023/02/22 02:55:07;;;;;;;94.65;46.20;;;8.60;99.90;;;;;;4922752;29;20282;-75
2023/02/22 02:57:32;;;;;;;91.25;46.15;;;8.60;99.90;;;;;;4918085;29;20087;-74
2023/02/22 02:59:58;;;;;;;85.88;48.85;;;8.60;99.90;;;;;;4924593;29;20040;-75
2023/02/22 03:02:59;;;;;;;87.63;47.65;;;8.70;99.90;;;;;;4923345;29;20032;-75
2023/02/22 03:05:51;;;;;;;89.43;47.47;;;8.70;99.90;;;;;;4922925;29;20374;-75
2023/02/22 03:08:16;;;;;;;79.53;46.00;;;8.70;99.90;;;;;;4921990;29;20182;-75
2023/02/22 03:11:01;;;;;;;85.80;45.97;;;8.60;99.90;;;;;;4921587;29;20110;-75
2023/02/22 03:13:55;;;;;;;93.82;47.92;;;8.50;99.90;;;;;;4921561;29;20074;-75
2023/02/22 03:16:38;;;;;;;84.95;46.28;;;8.40;99.90;;;;;;4920842;29;20235;-76
2023/02/22 03:19:33;;;;;;;88.70;46.60;;;8.40;99.90;;;;;;4922019;29;20052;-75
2023/02/22 03:22:05;;;;;;;;;;;8.50;99.90;;;;;;4922759;29;20511;-75
2023/02/22 03:24:51;;;;;;;84.65;41.95;;;8.50;99.90;;;;;;4922138;29;20351;-75
2023/02/22 03:27:22;;;;;;;84.10;44.60;;;8.40;99.90;;;;;;4921653;29;20096;-74
2023/02/22 03:29:51;;;;;;;85.05;43.92;;;8.40;99.90;;;;;;4926303;29;20039;-75
2023/02/22 03:32:24;;;;;;;93.95;46.75;;;8.40;99.90;;;;;;4923146;29;20027;-75
2023/02/22 03:35:15;;;;;;;87.05;46.15;;;8.30;99.90;;;;;;4921347;29;20046;-75
2023/02/22 03:37:47;;;;;;;86.50;48.58;;;8.40;99.90;;;;;;4921268;29;20024;-76
2023/02/22 03:40:26;;;;;;;92.88;48.85;;;8.40;99.90;;;;;;4923543;29;20042;-75
2023/02/22 03:43:01;;;;;;;86.35;45.50;;;8.40;99.90;;;;;;4923163;29;20035;-74
2023/02/22 03:45:28;;;;;;;84.45;48.28;;;8.50;99.90;;;;;;4920642;29;20032;-74
2023/02/22 03:48:39;;;;;;;95.03;46.67;;;8.50;99.90;;;;;;4920986;29;20039;-74
2023/02/22 03:51:05;;;;;;;78.80;45.78;;;8.40;99.90;;;;;;4899044;29;20524;-75
2023/02/22 03:53:33;;;;;;;93.82;46.92;;;8.40;99.90;;;;;;4919356;29;20051;-75
2023/02/22 03:56:00;;;;;;;88.13;46.75;;;8.50;99.90;;;;;;4926826;29;20040;-75
2023/02/22 03:58:30;;;;;;;87.22;46.25;;;8.30;99.90;;;;;;4925418;29;20050;-75
2023/02/22 04:00:56;;;;;;;83.90;45.55;;;8.30;99.90;;;;;;4918886;29;20060;-76
2023/02/22 04:03:22;;;;;;;83.47;42.58;;;8.40;99.90;;;;;;4917621;29;20509;-75
2023/02/22 04:05:48;;;;;;;78.82;44.47;;;8.40;99.90;;;;;;4917348;29;20023;-75
2023/02/22 04:08:15;;;;;;;87.50;45.53;;;8.50;99.90;;;;;;4914706;29;20485;-75
2023/02/22 04:10:41;;;;;;;85.63;42.28;;;8.50;99.90;;;;;;4914701;29;20036;-75
2023/02/22 04:13:07;;;;;;;76.55;45.65;;;8.40;99.90;;;;;;4917534;29;20050;-75
2023/02/22 04:15:32;;;;;;;84.97;43.05;;;8.50;99.90;;;;;;4915026;29;20032;-74
2023/02/22 04:17:58;;;;;;;86.53;45.65;;;8.40;99.90;;;;;;4913061;29;20024;-75
2023/02/22 04:20:24;;;;;;;83.20;45.17;;;8.40;99.90;;;;;;4916221;29;20041;-75
2023/02/22 04:22:52;;;;;;;86.75;44.42;;;8.40;99.90;;;;;;4916642;29;20031;-75
2023/02/22 04:25:18;;;;;;;84.78;43.45;;;8.40;99.90;;;;;;4917715;29;20039;-74
2023/02/22 04:27:44;;;;;;;76.13;43.80;;;8.40;99.90;;;;;;4920667;29;20031;-75
2023/02/22 04:30:11;;;;;;;77.50;42.22;;;8.40;99.90;;;;;;4919762;29;20027;-75
2023/02/22 04:32:38;;;;;;;75.20;41.53;;;8.30;99.90;;;;;;4920680;29;20090;-74
2023/02/22 04:35:05;;;;;;;70.10;38.50;;;8.30;99.90;;;;;;4913079;29;20024;-75
2023/02/22 04:37:33;;;;;;;76.10;39.20;;;8.30;99.90;;;;;;4913473;29;20032;-74
2023/02/22 04:40:00;;;;;;;72.25;38.78;;;8.30;99.90;;;;;;4913134;29;20035;-75
2023/02/22 04:42:26;;;;;;;70.65;41.88;;;8.10;99.90;;;;;;4916837;29;20032;-75
2023/02/22 04:44:52;;;;;;;80.07;38.60;;;8.10;99.90;;;;;;4915204;29;20040;-75
2023/02/22 04:47:18;;;;;;;79.45;38.97;;;8.00;99.90;;;;;;4918207;29;20035;-75
2023/02/22 04:49:44;;;;;;;77.38;40.83;;;8.10;99.90;;;;;;4916248;29;20048;-75
2023/02/22 04:52:10;;;;;;;69.25;38.17;;;8.00;99.90;;;;;;4917946;29;20023;-75
2023/02/22 04:54:36;;;;;;;73.35;39.88;;;8.00;99.90;;;;;;4915967;29;20040;-75
2023/02/22 04:57:01;;;;;;;73.53;38.03;;;8.00;99.90;;;;;;4916387;29;20035;-75
2023/02/22 04:59:27;;;;;;;61.60;36.65;;;8.00;99.90;;;;;;4920360;29;20039;-75
2023/02/22 05:01:53;;;;;;;71.75;39.55;;;8.10;99.90;;;;;;4917159;29;20873;-75
2023/02/22 05:04:20;;;;;;;72.88;39.28;;;8.00;99.90;;;;;;4919700;28;20032;-75
2023/02/22 05:06:46;;;;;;;78.93;40.08;;;8.00;99.90;;;;;;4918907;29;20024;-75
2023/02/22 05:09:12;;;;;;;68.47;39.67;;;8.00;99.90;;;;;;4916673;29;20059;-75
2023/02/22 05:11:38;;;;;;;68.00;36.58;;;8.00;99.90;;;;;;4916549;29;20127;-75
2023/02/22 05:14:03;;;;;;;73.80;39.22;;;7.90;99.90;;;;;;4917672;29;20141;-75
2023/02/22 05:16:29;;;;;;;66.70;38.08;;;7.80;99.90;;;;;;4917783;29;20067;-75
2023/02/22 05:18:55;;;;;;;75.18;39.72;;;7.90;99.90;;;;;;4916998;29;20063;-75
2023/02/22 05:21:21;;;;;;;71.97;40.08;;;7.90;99.90;;;;;;4919456;29;20082;-75
2023/02/22 05:23:46;;;;;;;72.30;39.42;;;8.00;99.90;;;;;;4916692;29;20048;-76
2023/02/22 05:26:12;;;;;;;74.30;40.40;;;7.90;99.90;;;;;;4917264;29;20063;-75
2023/02/22 05:28:38;;;;;;;73.38;37.25;;;7.90;99.90;;;;;;4919617;29;20593;-75
2023/02/22 05:31:04;;;;;;;66.55;37.40;;;8.00;99.90;;;;;;4914797;29;20105;-75
2023/02/22 05:33:31;;;;;;;67.78;38.00;;;8.00;99.90;;;;;;4916583;29;20078;-74
2023/02/22 05:35:57;;;;;;;71.35;38.97;;;8.00;99.90;;;;;;4917693;29;20115;-75
2023/02/22 05:38:23;;;;;;;70.53;38.40;;;8.00;99.90;;;;;;4917988;29;20039;-75
2023/02/22 05:40:48;;;;;;;74.28;39.55;;;7.90;99.90;;;;;;4918283;29;20138;-76
2023/02/22 05:43:14;;;;;;;76.85;38.80;;;7.90;99.90;;;;;;4918514;29;20780;-75
2023/02/22 05:45:40;;;;;;;71.15;38.58;;;8.00;99.90;;;;;;4916696;29;20046;-75
2023/02/22 05:48:06;;;;;;;73.10;38.75;;;8.10;99.90;;;;;;4918147;29;20042;-76
2023/02/22 05:50:32;;;;;;;67.30;34.78;;;8.00;99.90;;;;;;4916565;29;20037;-75
2023/02/22 05:52:59;;;;;;;67.30;37.00;;;8.00;99.90;;;;;;4917762;29;20075;-75
2023/02/22 05:55:24;;;;;;;66.20;35.30;;;7.90;99.90;;;;;;4917783;29;20039;-75
2023/02/22 05:57:51;;;;;;;62.90;34.53;;;7.80;99.90;;;;;;4919590;29;20042;-75
2023/02/22 06:00:29;;;;;;;63.45;34.80;;;7.70;99.90;;;;;;4917937;29;20051;-75
2023/02/22 06:02:59;;;;;;;58.40;34.42;;;7.80;99.90;;;;;;4915779;29;20050;-75
2023/02/22 06:05:26;;;;;;;59.28;31.60;;;7.90;99.90;;;;;;4916630;29;20145;-75
2023/02/22 06:07:52;;;;;;;56.35;30.02;;;7.90;99.90;;;;;;4916352;29;20142;-75
2023/02/22 06:10:19;;;;;;;61.00;30.88;;;7.90;99.90;;;;;;4915932;29;20024;-75
2023/02/22 06:12:45;;;;;;;64.95;33.08;;;8.00;99.90;;;;;;4918058;29;20036;-74
2023/02/22 06:15:11;;;;;;;62.35;33.33;;;7.90;99.90;;;;;;4917034;29;20067;-75
2023/02/22 06:17:38;;;;;;;56.38;30.38;;;7.70;99.90;;;;;;4916879;29;20223;-75
2023/02/22 06:20:04;;;;;;;57.72;30.67;;;7.80;99.90;;;;;;4917506;29;20062;-75
2023/02/22 06:22:29;;;;;;;58.20;31.50;;;7.80;99.90;;;;;;4917787;29;20533;-74
2023/02/22 06:24:55;;;;;;;56.38;30.65;;;7.80;99.90;;;;;;4918733;29;20134;-75
2023/02/22 06:27:21;;;;;;;60.58;32.25;;;7.70;99.90;;;;;;4924015;28;20031;-79
2023/02/22 06:29:46;;;;;;;58.13;31.45;;;7.70;99.90;;;;;;4924702;29;20566;-77
2023/02/22 06:32:13;;;;;;;54.60;32.40;;;7.70;99.90;;;;;;4923862;29;20079;-77
2023/02/22 06:34:39;;;;;;;63.50;29.95;;;7.80;99.90;;;;;;4916917;29;20699;-77
2023/02/22 06:37:06;;;;;;;54.35;29.90;;;7.90;99.90;;;;;;4918903;29;20039;-77
2023/02/22 06:39:32;;;;;;;55.22;29.77;;;7.90;99.90;;;;;;4917672;29;20035;-76
2023/02/22 06:41:59;;;;;;;54.47;30.92;;;7.90;99.90;;;;;;4918371;29;20036;-77
2023/02/22 06:44:24;;;;;;;59.83;31.25;;;7.80;99.90;;;;;;4923769;29;20103;-80
2023/02/22 06:46:50;;;;;;;54.63;30.10;;;7.80;99.90;;;;;;4921094;29;20025;-77
2023/02/22 06:49:19;;;;;;;49.53;28.83;;;7.80;99.90;;;;;;4910131;29;20418;-77
2023/02/22 06:51:45;;;;;;;54.42;31.08;;;7.80;99.90;;;;;;4910404;29;20036;-77
2023/02/22 06:54:13;;;;;;;56.38;32.17;;;7.80;99.90;;;;;;4913440;29;20326;-77
2023/02/22 06:56:39;;;;;;;51.13;27.67;;;7.80;99.90;;;;;;4920054;29;20061;-78
2023/02/22 06:59:04;;;;;;;53.53;30.10;;;7.80;99.90;;;;;;4910628;29;20463;-77
2023/02/22 07:01:30;;;;;;;55.08;28.13;;;7.80;99.90;;;;;;4915991;29;20516;-77
2023/02/22 07:03:56;;;;;;;51.28;28.15;;;7.90;99.90;;;;;;4915675;29;20485;-77
2023/02/22 07:06:21;;;;;;;52.25;28.23;;;7.90;99.90;;;;;;4914653;29;20103;-78
2023/02/22 07:08:47;;;;;;;55.47;28.70;;;7.90;99.90;;;;;;4916022;29;20355;-76
2023/02/22 07:11:15;;;;;;;46.92;26.17;;;7.80;99.90;;;;;;4911271;29;20067;-77
2023/02/22 07:13:41;;;;;;;46.00;27.98;;;7.80;99.90;;;;;;4911615;29;20549;-78
2023/02/22 07:16:06;;;;;;;52.28;27.63;;;7.90;99.90;;;;;;4910974;29;20061;-78
2023/02/22 07:18:32;;;;;;;43.97;26.42;;;7.90;99.90;;;;;;4915546;29;20071;-77
2023/02/22 07:20:57;;;;;;;46.22;25.73;;;8.10;99.90;;;;;;4915893;29;20399;-78
2023/02/22 07:23:23;;;;;;;48.58;26.23;;;8.10;99.90;;;;;;4917903;29;20039;-78
2023/02/22 07:25:49;;;;;;;44.80;27.52;;;8.10;99.90;;;;;;4915774;29;20569;-78
2023/02/22 07:28:15;;;;;;;46.25;24.15;;;8.10;99.90;;;;;;4917325;29;20094;-77
2023/02/22 07:30:42;;;;;;;52.42;26.65;;;8.10;99.90;;;;;;4919964;29;20537;-77
2023/02/22 07:33:11;;;;;;;45.55;26.92;;;8.20;99.90;;;;;;4912416;29;20533;-78
2023/02/22 07:35:42;;;;;;;52.65;25.48;;;8.30;99.90;;;;;;4915554;29;20035;-78
2023/02/22 07:38:08;;;;;;;43.65;23.80;;;8.30;99.90;;;;;;4916825;29;20083;-77
2023/02/22 07:40:34;;;;;;;42.42;26.13;;;8.40;99.90;;;;;;4913833;29;20032;-76
2023/02/22 07:43:12;;;;;;;49.67;25.27;;;8.40;99.90;;;;;;4917682;29;20098;-77
2023/02/22 07:45:38;;;;;;;47.85;24.77;;;8.40;99.90;;;;;;4917342;29;20067;-78
2023/02/22 07:48:04;;;;;;;47.42;25.13;;;8.40;99.90;;;;;;4916857;29;20451;-78
2023/02/22 07:50:31;;;;;;;45.75;24.60;;;8.50;99.90;;;;;;4917731;29;20035;-77
2023/02/22 07:53:00;;;;;;;43.25;24.92;;;8.40;99.90;;;;;;4918626;29;20087;-76
2023/02/22 07:55:28;;;;;;;46.92;25.77;;;8.50;99.90;;;;;;4917600;29;20406;-77
2023/02/22 07:57:56;;;;;;;43.00;24.40;;;8.50;99.90;;;;;;4919800;29;20177;-77
2023/02/22 08:00:28;;;;;;;44.58;23.83;;;8.60;99.90;;;;;;4918810;29;20394;-77
2023/02/22 08:02:54;;;;;;;42.58;24.90;;;8.60;99.90;;;;;;4920153;29;20036;-77
2023/02/22 08:05:22;;;;;;;41.58;21.98;;;8.70;99.90;;;;;;4916877;29;20085;-77
2023/02/22 08:07:47;;;;;;;48.05;25.15;;;8.70;99.90;;;;;;4917203;29;20036;-77
2023/02/22 08:10:15;;;;;;;44.58;24.77;;;8.50;99.90;;;;;;4918706;29;20378;-76
2023/02/22 08:12:40;;;;;;;53.50;23.80;;;8.40;99.90;;;;;;4918974;29;20536;-77
2023/02/22 08:15:13;;;;;;;47.63;25.05;;;8.50;99.90;;;;;;4915951;29;20031;-77
2023/02/22 08:17:39;;;;;;;50.45;25.63;;;8.60;99.90;;;;;;4920955;29;20051;-76
2023/02/22 08:20:05;;;;;;;49.63;25.15;;;8.50;99.90;;;;;;4912487;29;20043;-77
2023/02/22 08:22:31;;;;;;;44.90;25.23;;;8.60;99.90;;;;;;4920849;29;20035;-77
2023/02/22 08:24:57;;;;;;;43.50;24.10;;;8.60;99.90;;;;;;4920528;29;20086;-77
2023/02/22 08:27:29;;;;;;;41.65;23.38;;;8.60;99.90;;;;;;4918888;29;20040;-77
2023/02/22 08:29:55;;;;;;;42.25;24.00;;;8.50;99.90;;;;;;4922548;29;20498;-76
2023/02/22 08:32:22;;;;;;;47.40;25.40;;;8.50;99.90;;;;;;4922309;29;20035;-78
2023/02/22 08:34:48;;;;;;;39.70;22.70;;;8.60;99.90;;;;;;4924004;29;20102;-76
2023/02/22 08:37:17;;;;;;;47.53;25.38;;;8.70;99.90;;;;;;4919934;29;20040;-76
2023/02/22 08:39:43;;;;;;;44.88;25.42;;;8.80;99.90;;;;;;4921456;29;20434;-76
2023/02/22 08:42:09;;;;;;;49.85;25.65;;;8.80;99.90;;;;;;4927567;29;20066;-77
2023/02/22 08:44:36;;;;;;;41.13;24.95;;;8.80;99.90;;;;;;4920968;29;20177;-77
2023/02/22 08:47:03;;;;;;;47.35;24.65;;;8.90;99.90;;;;;;4916903;29;20038;-77
2023/02/22 08:49:28;;;;;;;46.92;23.98;;;8.80;99.90;;;;;;4919771;29;20028;-77
2023/02/22 08:51:54;;;;;;;49.20;25.55;;;8.80;99.90;;;;;;4924010;29;20126;-77
2023/02/22 08:54:21;;;;;;;45.50;25.02;;;8.90;99.90;;;;;;4916533;29;20031;-77
2023/02/22 08:56:47;;;;;;;47.88;24.40;;;8.90;99.90;;;;;;4914704;29;20039;-77
2023/02/22 08:59:13;;;;;;;40.45;24.80;;;8.80;99.90;;;;;;4922677;29;20215;-77
2023/02/22 09:01:39;;;;;;;43.33;23.90;;;8.80;99.90;;;;;;4921921;29;20925;-77
2023/02/22 09:04:05;;;;;;;43.30;25.38;;;8.70;99.90;;;;;;4919119;29;20028;-77
2023/02/22 09:06:30;;;;;;;44.22;25.83;;;8.70;99.90;;;;;;4923185;29;20040;-77
2023/02/22 09:08:56;;;;;;;47.47;23.92;;;8.70;99.90;;;;;;4922456;29;20762;-77
2023/02/22 09:11:22;;;;;;;44.30;24.38;;;8.70;99.90;;;;;;4918458;29;20090;-77
2023/02/22 09:13:48;;;;;;;50.35;25.13;;;8.70;99.90;;;;;;4923301;29;20044;-77
2023/02/22 09:16:13;;;;;;;44.40;23.17;;;8.80;99.90;;;;;;4920692;29;20063;-77
2023/02/22 09:18:39;;;;;;;48.58;24.45;;;8.80;99.90;;;;;;4920512;29;20040;-77
2023/02/22 09:21:05;;;;;;;38.05;22.42;;;8.90;99.90;;;;;;4924667;29;20068;-77
2023/02/22 09:23:30;;;;;;;43.80;23.27;;;8.90;99.90;;;;;;4922551;29;20151;-77
2023/02/22 09:25:58;;;;;;;43.88;24.27;;;8.90;99.90;;;;;;4924284;29;20035;-77
2023/02/22 09:28:25;;;;;;;44.85;25.55;;;8.90;99.90;;;;;;4920874;29;20023;-77
2023/02/22 09:30:51;;;;;;;45.25;24.17;;;8.90;99.90;;;;;;4923919;29;20032;-77
2023/02/22 09:33:18;;;;;;;46.80;24.77;;;9.00;99.90;;;;;;4920648;29;20036;-77
2023/02/22 09:35:46;;;;;;;52.95;27.27;;;9.10;99.90;;;;;;4916163;29;20039;-77
2023/02/22 09:38:18;;;;;;;50.85;28.15;;;9.10;99.90;;;;;;4916740;29;20115;-77
2023/02/22 09:40:49;;;;;;;45.72;24.20;;;9.20;99.90;;;;;;4919725;29;20032;-77
2023/02/22 09:43:54;;;;;;;51.80;25.55;;;9.30;99.90;;;;;;4920337;29;20067;-77
2023/02/22 09:46:37;;;;;;;47.50;26.33;;;9.30;99.90;;;;;;4922391;29;20035;-78
2023/02/22 09:49:18;;;;;;;44.75;23.75;;;9.30;99.90;;;;;;4924338;29;20032;-77
2023/02/22 09:52:23;;;;;;;47.10;24.63;;;9.30;99.90;;;;;;4930043;29;20027;-77
2023/02/22 09:55:09;;;;;;;48.40;26.85;;;9.30;99.90;;;;;;4914142;29;20050;-76
2023/02/22 09:57:40;;;;;;;50.88;26.15;;;9.20;99.90;;;;;;4928574;29;20078;-77
2023/02/22 10:00:20;;;;;;;51.50;25.83;;;9.30;99.90;;;;;;4926342;29;20038;-76
2023/02/22 10:02:53;;;;;;;48.03;25.67;;;9.30;99.90;;;;;;4928032;29;20032;-77
2023/02/22 10:05:38;;;;;;;52.65;26.23;;;9.40;99.90;;;;;;4927973;29;20042;-77
2023/02/22 10:08:11;;;;;;;52.03;27.63;;;9.50;99.90;;;;;;4925593;29;20039;-77
2023/02/22 10:10:40;;;;;;;51.63;28.48;;;9.50;99.90;;;;;;4928457;29;20032;-77
2023/02/22 10:13:23;;;;;;;53.97;27.92;;;9.70;99.90;;;;;;4931535;29;20043;-77
2023/02/22 10:15:53;;;;;;;50.13;26.85;;;9.60;99.90;;;;;;4927381;29;20119;-77
2023/02/22 10:18:28;;;;;;;51.63;28.33;;;9.60;99.90;;;;;;4923271;29;20670;-77
2023/02/22 10:20:57;;;;;;;49.08;28.67;;;9.70;99.80;;;;;;4926783;29;20111;-77
2023/02/22 10:23:47;;;;;;;58.58;29.80;;;9.80;99.80;;;;;;4922442;29;20494;-77
2023/02/22 10:26:38;;;;;;;47.80;26.80;;;10.00;99.70;;;;;;4922867;29;20082;-77
2023/02/22 10:29:24;;;;;;;55.72;29.13;;;10.00;99.40;;;;;;4925771;29;20510;-77
2023/02/22 10:31:55;;;;;;;49.80;31.33;;;10.10;99.70;;;;;;4926621;29;20032;-77
2023/02/22 10:34:24;;;;;;;54.50;28.98;;;10.30;99.30;;;;;;4920935;29;20031;-77
2023/02/22 10:36:56;;;;;;;73.35;40.92;;;10.20;99.10;;;;;;4925914;29;20032;-77
2023/02/22 10:39:30;;;;;;;53.58;30.55;;;10.20;99.20;;;;;;4923310;29;20047;-77
2023/02/22 10:42:04;;;;;;;52.95;27.95;;;10.30;99.30;;;;;;4921027;29;20114;-77
2023/02/22 10:44:33;;;;;;;;;;;10.40;99.10;;;;;;4921680;29;20055;-77
2023/02/22 10:47:02;;;;;;;52.28;28.35;;;10.40;98.90;;;;;;4920590;29;20108;-77
2023/02/22 10:49:35;;;;;;;50.15;29.02;;;10.40;99.00;;;;;;4925067;29;20036;-77
2023/02/22 10:52:03;;;;;;;49.78;29.90;;;10.60;99.00;;;;;;4922136;29;20032;-77
2023/02/22 10:54:37;;;;;;;51.95;28.60;;;10.70;99.00;;;;;;4922780;29;20095;-77
2023/02/22 10:57:03;;;;;;;56.15;30.17;;;10.80;99.00;;;;;;4923851;29;20070;-77
2023/02/22 10:59:35;;;;;;;56.72;31.10;;;11.00;98.50;;;;;;4922019;29;20063;-77
2023/02/22 11:02:27;;;;;;;60.92;31.35;;;10.90;98.50;;;;;;4918250;29;20418;-77
2023/02/22 11:04:56;;;;;;;56.63;32.67;;;11.10;98.60;;;;;;4923885;29;20078;-77
2023/02/22 11:07:34;;;;;;;58.97;33.42;;;11.30;98.70;;;;;;4921709;29;20560;-77
2023/02/22 11:10:03;;;;;;;58.08;32.50;;;11.50;98.80;;;;;;4919692;29;20028;-77
2023/02/22 11:12:36;;;;;;;58.97;33.22;;;11.60;98.20;;;;;;4918628;29;20051;-77
2023/02/22 11:15:28;;;;;;;59.60;32.28;;;11.50;98.20;;;;;;4925075;29;20034;-77
2023/02/22 11:17:56;;;;;;;69.13;35.28;;;11.70;98.40;;;;;;4918440;29;20075;-77
2023/02/22 11:20:27;;;;;;;67.50;36.95;;;11.90;98.10;;;;;;4924734;29;20043;-77
2023/02/22 11:22:59;;;;;;;60.45;34.83;;;12.00;97.70;;;;;;4922071;29;20047;-77
2023/02/22 11:25:30;;;;;;;72.45;37.85;;;12.00;97.70;;;;;;4929067;29;20111;-77
2023/02/22 11:28:16;;;;;;;66.38;36.92;;;12.00;98.00;;;;;;4923032;29;20087;-76
2023/02/22 11:30:45;;;;;;;66.10;36.30;;;12.10;97.90;;;;;;4925606;28;20114;-77
2023/02/22 11:33:25;;;;;;;66.53;35.92;;;12.10;98.00;;;;;;4923981;29;20055;-77
2023/02/22 11:35:53;;;;;;;64.03;36.08;;;12.10;97.40;;;;;;4921478;29;20119;-77
2023/02/22 11:38:27;;;;;;;62.30;34.63;;;12.20;97.40;;;;;;4925056;29;20039;-77
2023/02/22 11:41:15;;;;;;;70.30;37.35;;;12.30;97.30;;;;;;4922617;29;20039;-77
2023/02/22 11:43:43;;;;;;;66.60;36.35;;;12.30;97.30;;;;;;4918294;29;20474;-77
2023/02/22 11:46:39;;;;;;;68.15;37.95;;;12.60;97.20;;;;;;4918726;29;20024;-77
2023/02/22 11:49:10;;;;;;;68.13;34.83;;;12.60;96.80;;;;;;4910105;29;20042;-77
2023/02/22 11:52:10;;;;;;;61.45;36.55;;;12.80;96.80;;;;;;4928799;29;20043;-77
2023/02/22 11:55:08;;;;;;;68.13;37.13;;;12.80;96.70;;;;;;4924051;29;20617;-77
2023/02/22 11:58:07;;;;;;;64.05;36.53;;;12.90;96.60;;;;;;4925298;29;20031;-77
2023/02/22 12:00:35;;;;;;;60.97;34.65;;;12.80;96.60;;;;;;4925067;29;20051;-77
2023/02/22 12:03:16;;;;;;;63.25;36.85;;;12.60;96.50;;;;;;4921846;29;20032;-77
2023/02/22 12:06:07;;;;;;;64.95;35.75;;;12.90;97.00;;;;;;4925630;29;20048;-77
2023/02/22 12:09:12;;;;;;;66.03;35.38;;;13.00;96.60;;;;;;4923947;29;20031;-76
2023/02/22 12:12:10;;;;;;;62.28;34.60;;;13.20;96.50;;;;;;4920476;29;20067;-77
2023/02/22 12:14:42;;;;;;;61.03;35.30;;;13.30;96.00;;;;;;4920962;29;20035;-77
2023/02/22 12:17:23;;;;;;;77.95;38.53;;;13.20;96.00;;;;;;4925799;29;20028;-77
2023/02/22 12:20:12;;;;;;;76.75;37.25;;;13.20;96.30;;;;;;4919155;29;20046;-77
2023/02/22 12:22:50;;;;;;;69.20;36.85;;;13.30;96.10;;;;;;4892800;29;20054;-77
2023/02/22 12:25:21;;;;;;;64.82;34.40;;;13.40;96.30;;;;;;4919867;29;20052;-77
2023/02/22 12:28:04;;;;;;;62.58;34.20;;;13.30;96.10;;;;;;4923836;29;20024;-77
2023/02/22 12:30:37;;;;;;;61.13;34.80;;;13.40;96.00;;;;;;4925231;29;20027;-77
2023/02/22 12:33:13;;;;;;;112.65;38.72;;;13.40;96.00;;;;;;4924759;29;20024;-77
2023/02/22 12:35:47;;;;;;;59.88;33.25;;;13.20;96.10;;;;;;4919487;29;20043;-75
2023/02/22 12:38:16;;;;;;;60.75;33.40;;;13.40;96.40;;;;;;4920704;29;20072;-77
2023/02/22 12:40:52;;;;;;;62.33;36.97;;;13.20;95.60;;;;;;4925095;29;20113;-76
2023/02/22 12:43:19;;;;;;;61.70;36.92;;;13.00;95.70;;;;;;4920597;29;20024;-73
2023/02/22 12:46:03;;;;;;;61.60;35.50;;;12.80;96.00;;;;;;4928195;29;20521;-74
2023/02/22 12:48:32;;;;;;;63.90;34.30;;;12.90;96.10;;;;;;5066552;23;20054;-83
2023/02/22 12:51:22;;;;;;;61.58;35.63;;;13.00;95.80;;;;;;4919622;29;20616;-83
2023/02/22 12:54:26;;;;;;;64.50;36.90;;;13.10;95.80;;;;;;4913193;29;20079;-82
2023/02/22 12:56:58;;;;;;;57.63;34.55;;;13.60;96.10;;;;;;4909304;29;20184;-82